createdAt,value
2023-01-17T00:01:34.016Z,4.50
2023-01-17T00:04:19.402Z,1.38
2023-01-17T00:07:05.493Z,1.48
2023-01-17T00:09:51.009Z,1.52
2023-01-17T00:12:17.800Z,1.90
2023-01-17T00:14:44.583Z,2.10
2023-01-17T00:17:11.334Z,2.67
2023-01-17T00:19:56.503Z,1.60
2023-01-17T00:22:47.033Z,1.30
2023-01-17T00:25:37.599Z,1.17
2023-01-17T00:28:05.707Z,1.20
2023-01-17T00:30:32.633Z,1.38
2023-01-17T00:32:59.551Z,1.25
2023-01-17T00:35:29.294Z,2.15
2023-01-17T00:38:03.562Z,2.08
2023-01-17T00:40:30.689Z,1.20
2023-01-17T00:43:16.333Z,1.05
2023-01-17T00:46:05.378Z,1.48
2023-01-17T00:48:51.838Z,0.50
2023-01-17T00:51:37.868Z,1.58
2023-01-17T00:54:23.550Z,0.85
2023-01-17T00:57:09.139Z,1.83
2023-01-17T00:59:54.740Z,0.63
2023-01-17T01:02:40.812Z,2.22
2023-01-17T01:05:26.515Z,1.08
2023-01-17T01:08:12.061Z,0.93
2023-01-17T01:10:57.519Z,0.80
2023-01-17T01:13:47.499Z,0.50
2023-01-17T01:16:34.246Z,0.90
2023-01-17T01:19:20.276Z,1.48
2023-01-17T01:22:05.787Z,0.70
2023-01-17T01:24:51.392Z,2.22
2023-01-17T01:27:36.970Z,0.73
2023-01-17T01:30:23.284Z,1.30
2023-01-17T01:33:08.750Z,1.33
2023-01-17T01:35:36.824Z,0.88
2023-01-17T01:38:03.656Z,1.95
2023-01-17T01:40:30.458Z,0.98
2023-01-17T01:43:00.238Z,1.50
2023-01-17T01:45:31.349Z,0.82
2023-01-17T01:48:06.628Z,0.63
2023-01-17T01:50:37.566Z,0.77
2023-01-17T01:53:06.159Z,2.00
2023-01-17T01:55:40.380Z,1.65
2023-01-17T01:58:28.746Z,0.75
2023-01-17T02:00:55.584Z,0.98
2023-01-17T02:03:29.493Z,0.70
2023-01-17T02:06:04.211Z,2.25
2023-01-17T02:08:31.644Z,1.40
2023-01-17T02:10:58.379Z,0.45
2023-01-17T02:13:25.220Z,0.80
2023-01-17T02:16:14.008Z,1.25
2023-01-17T02:18:46.895Z,3.13
2023-01-17T02:22:03.192Z,2.17
2023-01-17T02:24:32.706Z,1.23
2023-01-17T02:27:05.437Z,1.55
2023-01-17T02:29:35.145Z,2.80
2023-01-17T02:32:20.531Z,1.80
2023-01-17T02:35:02.355Z,1.13
2023-01-17T02:37:34.864Z,1.75
2023-01-17T02:40:10.151Z,0.85
2023-01-17T02:42:45.549Z,1.65
2023-01-17T02:45:18.084Z,1.92
2023-01-17T02:47:45.472Z,3.88
2023-01-17T02:50:19.262Z,1.15
2023-01-17T02:52:54.946Z,0.80
2023-01-17T02:55:30.966Z,1.65
2023-01-17T02:58:25.117Z,3.42
2023-01-17T03:01:16.139Z,1.75
2023-01-17T03:04:24.054Z,1.05
2023-01-17T03:07:01.491Z,1.75
2023-01-17T03:09:30.376Z,2.33
2023-01-17T03:11:59.033Z,3.63
2023-01-17T03:14:25.778Z,0.77
2023-01-17T03:16:53.335Z,2.47
2023-01-17T03:19:20.099Z,1.45
2023-01-17T03:21:46.849Z,0.82
2023-01-17T03:24:13.603Z,1.90
2023-01-17T03:26:40.342Z,1.20
2023-01-17T03:29:07.089Z,0.63
2023-01-17T03:31:33.822Z,1.75
2023-01-17T03:34:00.535Z,1.13
2023-01-17T03:36:27.242Z,1.77
2023-01-17T03:38:53.992Z,1.05
2023-01-17T03:41:20.711Z,0.55
2023-01-17T03:43:47.755Z,1.63
2023-01-17T03:46:21.447Z,2.35
2023-01-17T03:48:48.440Z,0.90
2023-01-17T03:51:15.467Z,0.75
2023-01-17T03:53:42.723Z,1.55
2023-01-17T03:56:09.599Z,2.28
2023-01-17T03:58:36.324Z,2.67
2023-01-17T04:01:03.255Z,0.30
2023-01-17T04:03:30.208Z,1.60
2023-01-17T04:05:56.992Z,1.42
2023-01-17T04:08:24.542Z,1.10
2023-01-17T04:10:52.453Z,2.35
2023-01-17T04:13:19.204Z,1.05
2023-01-17T04:15:48.528Z,1.73
2023-01-17T04:18:17.287Z,1.53
2023-01-17T04:20:45.174Z,1.13
2023-01-17T04:23:11.974Z,0.70
2023-01-17T04:25:38.931Z,1.50
2023-01-17T04:28:06.067Z,1.13
2023-01-17T04:30:33.409Z,1.45
2023-01-17T04:33:00.184Z,1.17
2023-01-17T04:35:26.952Z,0.93
2023-01-17T04:37:53.730Z,2.63
2023-01-17T04:40:20.478Z,1.08
2023-01-17T04:42:47.943Z,1.00
2023-01-17T04:45:15.507Z,1.42
2023-01-17T04:47:42.188Z,0.55
2023-01-17T04:50:10.258Z,0.93
2023-01-17T04:52:37.017Z,1.85
2023-01-17T04:55:04.004Z,1.15
2023-01-17T04:57:30.773Z,2.55
2023-01-17T04:59:57.477Z,2.95
2023-01-17T05:02:24.523Z,1.13
2023-01-17T05:04:51.321Z,1.50
2023-01-17T05:07:18.095Z,2.63
2023-01-17T05:09:44.873Z,0.90
2023-01-17T05:12:11.591Z,1.88
2023-01-17T05:14:38.336Z,0.63
2023-01-17T05:17:05.052Z,1.77
2023-01-17T05:19:31.885Z,0.80
2023-01-17T05:22:04.036Z,1.25
2023-01-17T05:24:32.250Z,1.33
2023-01-17T05:27:03.149Z,1.17
2023-01-17T05:29:30.691Z,4.55
2023-01-17T05:31:57.866Z,2.03
2023-01-17T05:34:24.786Z,1.80
2023-01-17T05:36:51.848Z,2.05
2023-01-17T05:39:18.912Z,2.95
2023-01-17T05:41:46.491Z,0.75
2023-01-17T05:44:13.313Z,0.77
2023-01-17T05:46:40.243Z,1.30
2023-01-17T05:49:07.003Z,1.58
2023-01-17T05:51:37.627Z,0.90
2023-01-17T05:54:05.401Z,1.15
2023-01-17T05:56:32.362Z,3.10
2023-01-17T05:58:59.112Z,1.77
2023-01-17T06:01:25.887Z,2.83
2023-01-17T06:03:52.637Z,1.75
2023-01-17T06:06:19.466Z,1.60
2023-01-17T06:08:46.203Z,3.78
2023-01-17T06:11:12.888Z,0.88
2023-01-17T06:13:39.663Z,3.17
2023-01-17T06:16:06.750Z,2.88
2023-01-17T06:18:33.528Z,3.33
2023-01-17T06:21:00.343Z,4.93
2023-01-17T06:23:27.179Z,3.15
2023-01-17T06:25:54.252Z,1.92
2023-01-17T06:28:22.676Z,1.80
2023-01-17T06:30:50.059Z,2.13
2023-01-17T06:33:16.849Z,1.98
2023-01-17T06:35:51.403Z,3.25
2023-01-17T06:38:18.492Z,3.53
2023-01-17T06:40:45.287Z,2.90
2023-01-17T06:43:12.117Z,3.90
2023-01-17T06:45:39.570Z,4.15
2023-01-17T06:48:06.720Z,4.35
2023-01-17T06:50:33.882Z,4.65
2023-01-17T06:53:03.315Z,3.72
2023-01-17T06:55:33.554Z,7.10
2023-01-17T06:58:02.470Z,6.85
2023-01-17T07:00:31.066Z,3.33
2023-01-17T07:02:58.005Z,8.13
2023-01-17T07:05:24.991Z,3.13
2023-01-17T07:07:51.967Z,2.53
2023-01-17T07:10:18.773Z,1.63
2023-01-17T07:12:45.594Z,2.17
2023-01-17T07:15:12.779Z,2.63
2023-01-17T07:17:39.548Z,2.40
2023-01-17T07:20:06.997Z,2.20
2023-01-17T07:22:33.883Z,5.60
2023-01-17T07:25:00.708Z,1.55
2023-01-17T07:27:30.443Z,1.80
2023-01-17T07:29:57.677Z,2.60
2023-01-17T07:32:26.624Z,1.13
2023-01-17T07:34:54.026Z,2.95
2023-01-17T07:37:21.215Z,1.95
2023-01-17T07:39:47.986Z,1.58
2023-01-17T07:42:14.874Z,1.50
2023-01-17T07:44:44.039Z,2.50
2023-01-17T07:47:11.500Z,2.57
2023-01-17T07:49:38.391Z,2.92
2023-01-17T07:52:08.149Z,3.15
2023-01-17T07:54:35.229Z,1.80
2023-01-17T07:57:02.995Z,2.92
2023-01-17T07:59:29.725Z,1.52
2023-01-17T08:01:56.549Z,2.67
2023-01-17T08:04:26.492Z,3.63
2023-01-17T08:06:54.905Z,3.85
2023-01-17T08:09:21.924Z,1.70
2023-01-17T08:11:48.743Z,3.22
2023-01-17T08:14:15.445Z,1.30
2023-01-17T08:16:42.247Z,2.08
2023-01-17T08:19:09.087Z,1.73
2023-01-17T08:21:35.844Z,1.33
2023-01-17T08:24:02.547Z,2.65
2023-01-17T08:26:29.288Z,1.65
2023-01-17T08:29:00.100Z,1.27
2023-01-17T08:31:28.508Z,0.85
2023-01-17T08:33:56.930Z,2.58
2023-01-17T08:36:25.783Z,1.90
2023-01-17T08:38:52.916Z,2.17
2023-01-17T08:41:20.939Z,4.65
2023-01-17T08:43:49.538Z,1.75
2023-01-17T08:46:17.255Z,2.65
2023-01-17T08:48:44.779Z,3.15
2023-01-17T08:51:11.919Z,1.33
2023-01-17T08:53:38.781Z,3.72
2023-01-17T08:56:06.054Z,1.95
2023-01-17T08:58:34.911Z,1.35
2023-01-17T09:01:03.135Z,2.83
2023-01-17T09:03:31.218Z,3.42
2023-01-17T09:06:09.090Z,2.72
2023-01-17T09:08:36.133Z,6.68
2023-01-17T09:11:07.896Z,2.88
2023-01-17T09:13:35.172Z,2.65
2023-01-17T09:16:03.027Z,2.22
2023-01-17T09:18:30.880Z,2.65
2023-01-17T09:21:00.468Z,5.15
2023-01-17T09:23:29.863Z,4.23
2023-01-17T09:25:58.372Z,7.20
2023-01-17T09:28:26.550Z,3.45
2023-01-17T09:30:54.149Z,3.22
2023-01-17T09:33:26.992Z,1.98
2023-01-17T09:35:53.693Z,4.78
2023-01-17T09:38:21.744Z,2.95
2023-01-17T09:40:49.022Z,2.88
2023-01-17T09:43:22.200Z,3.15
2023-01-17T09:45:49.360Z,2.10
2023-01-17T09:48:28.440Z,2.85
2023-01-17T09:51:13.161Z,2.85
2023-01-17T09:53:41.676Z,1.67
2023-01-17T09:56:17.520Z,2.70
2023-01-17T09:58:58.711Z,1.58
2023-01-17T10:01:39.740Z,4.65
2023-01-17T10:04:37.490Z,5.70
2023-01-17T10:07:31.111Z,0.98
2023-01-17T10:10:19.734Z,2.05
2023-01-17T10:13:03.964Z,1.35
2023-01-17T10:15:47.597Z,4.38
2023-01-17T10:18:56.375Z,2.45
2023-01-17T10:24:16.576Z,3.08
2023-01-17T10:26:51.475Z,2.53
2023-01-17T10:29:21.073Z,2.47
2023-01-17T10:31:59.731Z,0.85
2023-01-17T10:34:29.348Z,1.90
2023-01-17T10:37:06.143Z,1.15
2023-01-17T10:39:33.797Z,1.58
2023-01-17T10:42:14.215Z,1.60
2023-01-17T10:47:23.001Z,1.02
2023-01-17T10:49:55.186Z,1.00
2023-01-17T10:52:30.816Z,2.42
2023-01-17T10:55:05.757Z,1.42
2023-01-17T10:57:42.970Z,1.20
2023-01-17T11:00:28.594Z,2.00
2023-01-17T11:02:55.924Z,0.73
2023-01-17T11:05:31.490Z,1.65
2023-01-17T11:08:03.604Z,1.05
2023-01-17T11:10:51.010Z,2.67
2023-01-17T11:13:41.255Z,6.50
2023-01-17T11:16:10.750Z,3.45
2023-01-17T11:18:40.681Z,1.47
2023-01-17T11:21:16.564Z,4.72
2023-01-17T11:23:46.697Z,1.38
2023-01-17T11:26:31.148Z,1.17
2023-01-17T11:29:30.297Z,1.83
2023-01-17T11:31:57.724Z,1.15
2023-01-17T11:34:29.380Z,3.03
2023-01-17T11:37:20.044Z,1.15
2023-01-17T11:39:48.193Z,1.77
2023-01-17T11:42:36.861Z,1.73
2023-01-17T11:45:24.866Z,1.92
2023-01-17T11:48:12.695Z,2.40
2023-01-17T11:50:54.611Z,1.83
2023-01-17T11:53:33.193Z,1.40
2023-01-17T11:56:20.924Z,1.17
2023-01-17T11:58:47.795Z,2.08
2023-01-17T12:01:30.031Z,1.88
2023-01-17T12:04:14.982Z,1.25
2023-01-17T12:07:04.699Z,4.75
2023-01-17T12:09:50.846Z,1.85
2023-01-17T12:13:16.365Z,1.10
2023-01-17T12:15:54.939Z,1.38
2023-01-17T12:18:42.895Z,1.17
2023-01-17T12:21:31.104Z,2.05
2023-01-17T12:24:25.469Z,1.63
2023-01-17T12:27:22.815Z,1.20
2023-01-17T12:29:59.559Z,1.70
2023-01-17T12:32:32.544Z,3.17
2023-01-17T12:35:01.836Z,2.05
2023-01-17T12:37:38.528Z,2.85
2023-01-17T12:40:28.473Z,3.53
2023-01-17T12:43:01.417Z,2.17
2023-01-17T12:45:36.266Z,3.85
2023-01-17T12:48:09.862Z,1.30
2023-01-17T12:50:43.145Z,1.30
2023-01-17T12:53:24.109Z,1.10
2023-01-17T12:55:50.780Z,1.95
2023-01-17T12:58:25.609Z,1.40
2023-01-17T13:01:15.775Z,2.60
2023-01-17T13:04:07.055Z,1.95
2023-01-17T13:06:42.477Z,0.80
2023-01-17T13:09:13.226Z,0.80
2023-01-17T13:11:49.745Z,1.80
2023-01-17T13:14:16.680Z,1.73
2023-01-17T13:16:57.702Z,1.65
2023-01-17T13:19:43.617Z,2.08
2023-01-17T13:22:18.632Z,1.27
2023-01-17T13:24:58.874Z,1.08
2023-01-17T13:27:40.526Z,3.30
2023-01-17T13:30:31.275Z,0.88
2023-01-17T13:33:21.003Z,1.13
2023-01-17T13:36:18.701Z,2.35
2023-01-17T13:38:54.891Z,0.80
2023-01-17T13:41:36.860Z,3.15
2023-01-17T13:44:22.987Z,2.33
2023-01-17T13:47:17.583Z,1.98
2023-01-17T13:49:49.314Z,2.85
2023-01-17T13:52:18.857Z,2.35
2023-01-17T13:54:52.981Z,4.13
2023-01-17T13:57:28.526Z,1.48
2023-01-17T13:59:57.951Z,1.65
2023-01-17T14:02:33.874Z,3.25
2023-01-17T14:05:18.069Z,3.22
2023-01-17T14:07:56.062Z,2.05
2023-01-17T14:10:33.816Z,1.65
2023-01-17T14:13:01.546Z,2.83
2023-01-17T14:15:31.572Z,3.28
2023-01-17T14:18:03.558Z,2.13
2023-01-17T14:20:44.113Z,1.95
2023-01-17T14:24:00.643Z,1.33
2023-01-17T14:26:55.242Z,1.40
2023-01-17T14:29:40.655Z,1.80
2023-01-17T14:32:11.950Z,2.60
2023-01-17T14:34:39.202Z,1.25
2023-01-17T14:37:18.458Z,1.52
2023-01-17T14:39:50.253Z,1.63
2023-01-17T14:42:23.505Z,1.42
2023-01-17T14:44:56.575Z,1.83
2023-01-17T14:47:23.747Z,1.60
2023-01-17T14:50:17.791Z,3.05
2023-01-17T14:52:47.263Z,2.55
2023-01-17T14:55:19.115Z,4.17
2023-01-17T14:57:56.728Z,3.78
2023-01-17T15:00:25.456Z,2.38
2023-01-17T15:02:53.759Z,2.38
2023-01-17T15:05:22.925Z,2.45
2023-01-17T15:07:53.087Z,3.88
2023-01-17T15:12:52.563Z,2.20
2023-01-17T15:15:48.777Z,1.92
2023-01-17T15:18:19.635Z,2.85
2023-01-17T15:21:02.190Z,2.75
2023-01-17T15:23:37.478Z,2.35
2023-01-17T15:26:06.922Z,3.65
2023-01-17T15:28:34.803Z,5.07
2023-01-17T15:31:04.644Z,2.47
2023-01-17T15:33:33.501Z,3.35
2023-01-17T15:36:07.086Z,5.15
2023-01-17T15:38:39.267Z,4.30
2023-01-17T15:41:13.573Z,2.92
2023-01-17T15:43:41.648Z,2.78
2023-01-17T15:46:22.854Z,4.30
2023-01-17T15:48:51.680Z,2.35
2023-01-17T15:51:37.839Z,3.15
2023-01-17T15:54:47.889Z,3.30
2023-01-17T15:57:19.145Z,3.03
2023-01-17T15:59:51.795Z,2.70
2023-01-17T16:02:34.067Z,3.38
2023-01-17T16:05:04.811Z,3.80
2023-01-17T16:07:35.882Z,2.25
2023-01-17T16:10:18.674Z,4.93
2023-01-17T16:12:46.455Z,5.05
2023-01-17T16:15:14.004Z,3.30
2023-01-17T16:17:45.457Z,4.25
2023-01-17T16:20:22.217Z,2.60
2023-01-17T16:22:49.996Z,2.60
2023-01-17T16:25:17.174Z,8.20
2023-01-17T16:27:45.416Z,2.15
2023-01-17T16:32:48.638Z,6.00
2023-01-17T16:35:29.981Z,3.85
2023-01-17T16:38:02.164Z,3.53
2023-01-17T16:40:31.863Z,2.72
2023-01-17T16:43:00.342Z,4.13
2023-01-17T16:45:27.550Z,3.45
2023-01-17T16:47:54.795Z,3.33
2023-01-17T16:50:23.857Z,5.00
2023-01-17T16:52:52.421Z,3.58
2023-01-17T16:55:24.422Z,4.60
2023-01-17T16:57:54.167Z,3.70
2023-01-17T17:00:22.582Z,5.13
2023-01-17T17:02:53.191Z,2.67
2023-01-17T17:05:20.217Z,5.82
2023-01-17T17:07:50.813Z,4.88
2023-01-17T17:10:19.829Z,5.35
2023-01-17T17:12:46.836Z,4.70
2023-01-17T17:15:14.076Z,6.55
2023-01-17T17:17:43.135Z,5.78
2023-01-17T17:20:12.915Z,5.00
2023-01-17T17:22:44.152Z,5.38
2023-01-17T17:25:12.015Z,5.60
2023-01-17T17:27:39.246Z,4.43
2023-01-17T17:30:06.568Z,5.85
2023-01-17T17:32:33.318Z,4.22
2023-01-17T17:35:00.658Z,4.32
2023-01-17T17:37:30.465Z,4.43
2023-01-17T17:39:57.750Z,3.05
2023-01-17T17:42:24.502Z,10.73
2023-01-17T17:44:51.333Z,6.75
2023-01-17T17:47:18.067Z,5.05
2023-01-17T17:49:44.839Z,4.43
2023-01-17T17:52:11.624Z,3.13
2023-01-17T17:54:38.499Z,5.97
2023-01-17T17:57:05.271Z,4.13
2023-01-17T17:59:31.987Z,4.35
2023-01-17T18:01:59.790Z,3.58
2023-01-17T18:04:26.794Z,4.80
2023-01-17T18:06:58.265Z,5.70
2023-01-17T18:09:24.987Z,7.93
2023-01-17T18:11:52.005Z,5.65
2023-01-17T18:14:21.121Z,8.95
2023-01-17T18:16:48.240Z,5.00
2023-01-17T18:19:21.265Z,7.47
2023-01-17T18:21:50.260Z,5.63
2023-01-17T18:24:19.595Z,5.03
2023-01-17T18:26:51.568Z,4.37
2023-01-17T18:29:20.860Z,6.13
2023-01-17T18:31:50.086Z,3.37
2023-01-17T18:34:27.058Z,4.38
2023-01-17T18:36:53.889Z,4.32
2023-01-17T18:39:26.893Z,4.65
2023-01-17T18:41:54.405Z,4.25
2023-01-17T18:44:23.112Z,4.47
2023-01-17T18:46:53.610Z,4.88
2023-01-17T18:49:20.901Z,4.65
2023-01-17T18:51:50.319Z,6.18
2023-01-17T18:54:17.784Z,5.93
2023-01-17T18:56:44.667Z,4.07
2023-01-17T18:59:18.147Z,4.60
2023-01-17T19:01:45.627Z,4.30
2023-01-17T19:04:14.233Z,3.72
2023-01-17T19:06:43.529Z,6.75
2023-01-17T19:09:11.920Z,6.10
2023-01-17T19:11:38.948Z,4.28
2023-01-17T19:14:06.814Z,5.03
2023-01-17T19:16:36.838Z,3.58
2023-01-17T19:19:09.293Z,6.90
2023-01-17T19:21:36.092Z,6.00
2023-01-17T19:24:03.548Z,7.40
2023-01-17T19:26:30.405Z,4.53
2023-01-17T19:29:03.708Z,6.53
2023-01-17T19:31:32.367Z,5.82
2023-01-17T19:33:59.968Z,6.15
2023-01-17T19:36:31.008Z,5.82
2023-01-17T19:39:06.361Z,5.35
2023-01-17T19:41:40.782Z,6.35
2023-01-17T19:44:09.286Z,6.47
2023-01-17T19:46:36.549Z,6.75
2023-01-17T19:49:06.874Z,7.85
2023-01-17T19:51:33.738Z,9.98
2023-01-17T19:54:01.703Z,5.63
2023-01-17T19:56:29.768Z,6.75
2023-01-17T19:59:00.700Z,6.65
2023-01-17T20:01:30.681Z,6.35
2023-01-17T20:03:58.658Z,6.32
2023-01-17T20:06:31.485Z,6.65
2023-01-17T20:08:58.433Z,5.72
2023-01-17T20:11:26.539Z,5.57
2023-01-17T20:13:56.841Z,6.88
2023-01-17T20:16:25.313Z,5.35
2023-01-17T20:18:52.342Z,6.00
2023-01-17T20:21:21.373Z,5.38
2023-01-17T20:23:50.006Z,5.03
2023-01-17T20:26:25.202Z,6.25
2023-01-17T20:28:53.290Z,6.75
2023-01-17T20:31:23.401Z,10.98
2023-01-17T20:36:19.401Z,9.93
2023-01-17T20:38:46.451Z,12.85
2023-01-17T20:41:51.440Z,13.25
2023-01-17T20:44:19.540Z,11.48
2023-01-17T20:46:47.985Z,8.68
2023-01-17T20:49:18.788Z,7.68
2023-01-17T20:51:46.366Z,7.47
2023-01-17T20:54:14.981Z,8.93
2023-01-17T20:56:42.639Z,7.40
2023-01-17T20:59:13.156Z,6.22
2023-01-17T21:01:40.056Z,5.70
2023-01-17T21:04:10.062Z,4.75
2023-01-17T21:06:39.634Z,7.32
2023-01-17T21:09:08.493Z,5.55
2023-01-17T21:11:35.908Z,6.28
2023-01-17T21:14:02.700Z,5.28
2023-01-17T21:16:29.471Z,7.05
2023-01-17T21:18:56.320Z,8.60
2023-01-17T21:21:25.379Z,7.88
2023-01-17T21:23:54.552Z,5.20
2023-01-17T21:26:22.533Z,7.47
2023-01-17T21:28:50.722Z,6.82
2023-01-17T21:31:24.370Z,5.72
2023-01-17T21:33:56.801Z,10.43
2023-01-17T21:36:26.661Z,5.88
2023-01-17T21:38:57.080Z,5.18
2023-01-17T21:41:28.729Z,6.00
2023-01-17T21:43:58.602Z,6.60
2023-01-17T21:46:26.213Z,6.97
2023-01-17T21:48:52.990Z,5.68
2023-01-17T21:51:21.695Z,7.13
2023-01-17T21:53:48.506Z,7.25
2023-01-17T21:56:33.651Z,5.95
2023-01-17T21:59:01.071Z,6.45
2023-01-17T22:01:32.066Z,6.07
2023-01-17T22:04:03.400Z,6.05
2023-01-17T22:06:34.430Z,5.85
2023-01-17T22:09:01.309Z,6.63
2023-01-17T22:11:30.299Z,7.53
2023-01-17T22:13:58.967Z,5.88
2023-01-17T22:16:26.271Z,6.07
2023-01-17T22:18:53.113Z,6.88
2023-01-17T22:21:25.472Z,6.78
2023-01-17T22:23:59.940Z,5.47
2023-01-17T22:26:29.368Z,7.50
2023-01-17T22:28:56.339Z,6.83
2023-01-17T22:31:25.471Z,9.10
2023-01-17T22:33:54.930Z,5.82
2023-01-17T22:36:22.067Z,5.82
2023-01-17T22:38:48.884Z,6.03
2023-01-17T22:41:22.016Z,6.18
2023-01-17T22:43:51.291Z,5.28
2023-01-17T22:46:20.742Z,7.23
2023-01-17T22:48:47.600Z,6.07
2023-01-17T22:51:16.436Z,6.18
2023-01-17T22:53:51.321Z,4.80
2023-01-17T22:56:21.465Z,4.57
2023-01-17T23:01:26.805Z,7.00
2023-01-17T23:03:58.863Z,5.13
2023-01-17T23:06:31.171Z,5.38
2023-01-17T23:09:03.187Z,6.38
2023-01-17T23:11:40.573Z,5.28
2023-01-17T23:14:51.962Z,5.55
2023-01-17T23:17:38.249Z,8.30
2023-01-17T23:20:07.715Z,5.97
2023-01-17T23:22:34.564Z,7.95
2023-01-17T23:25:10.919Z,6.15
2023-01-17T23:28:01.187Z,5.32
2023-01-17T23:30:34.607Z,7.43
2023-01-17T23:33:06.265Z,5.72
2023-01-17T23:35:41.257Z,4.93
2023-01-17T23:38:33.569Z,6.57
2023-01-17T23:41:27.049Z,6.32
2023-01-17T23:43:55.812Z,7.70
2023-01-17T23:46:23.919Z,6.05
2023-01-17T23:48:50.908Z,6.88
2023-01-17T23:51:17.809Z,5.20
2023-01-17T23:53:44.567Z,6.20
2023-01-17T23:56:20.342Z,5.32
2023-01-17T23:58:47.094Z,4.88
